createdAt,value
2022-10-13T00:00:26.431Z,12.07
2022-10-13T00:02:52.980Z,13.17
2022-10-13T00:05:19.505Z,13.23
2022-10-13T00:07:46.009Z,13.10
2022-10-13T00:10:12.522Z,14.20
2022-10-13T00:12:39.157Z,12.80
2022-10-13T00:15:06.804Z,12.83
2022-10-13T00:17:33.401Z,13.40
2022-10-13T00:19:59.916Z,12.83
2022-10-13T00:22:27.664Z,13.03
2022-10-13T00:24:54.344Z,12.07
2022-10-13T00:27:20.932Z,12.37
2022-10-13T00:29:47.412Z,12.93
2022-10-13T00:32:13.902Z,11.23
2022-10-13T00:34:40.507Z,11.50
2022-10-13T00:37:07.036Z,12.50
2022-10-13T00:39:33.528Z,11.73
2022-10-13T00:42:00.372Z,11.47
2022-10-13T00:45:00.662Z,11.80
2022-10-13T00:47:28.960Z,11.63
2022-10-13T00:49:55.496Z,11.03
2022-10-13T00:52:22.264Z,12.67
2022-10-13T00:54:48.829Z,11.67
2022-10-13T00:57:15.304Z,11.37
2022-10-13T00:59:42.021Z,12.03
2022-10-13T01:02:08.487Z,12.23
2022-10-13T01:04:38.049Z,11.47
2022-10-13T01:07:04.658Z,11.97
2022-10-13T01:09:37.389Z,11.97
2022-10-13T01:12:22.382Z,12.37
2022-10-13T01:15:20.773Z,11.50
2022-10-13T01:18:12.224Z,12.23
2022-10-13T01:21:06.679Z,11.83
2022-10-13T01:23:54.525Z,11.47
2022-10-13T01:26:44.992Z,10.63
2022-10-13T01:29:47.875Z,13.33
2022-10-13T01:32:14.264Z,11.93
2022-10-13T01:34:46.736Z,10.77
2022-10-13T01:37:20.929Z,11.27
2022-10-13T01:39:53.489Z,11.40
2022-10-13T01:42:23.082Z,12.10
2022-10-13T01:44:54.932Z,11.30
2022-10-13T01:47:21.412Z,10.67
2022-10-13T01:49:47.915Z,10.87
2022-10-13T01:52:16.867Z,11.63
2022-10-13T01:54:47.352Z,11.13
2022-10-13T01:57:33.025Z,10.73
2022-10-13T02:00:12.687Z,11.50
2022-10-13T02:03:06.095Z,10.67
2022-10-13T02:05:49.165Z,10.67
2022-10-13T02:08:36.870Z,11.57
2022-10-13T02:11:19.747Z,11.13
2022-10-13T02:14:15.937Z,10.57
2022-10-13T02:16:43.496Z,10.43
2022-10-13T02:19:11.765Z,10.40
2022-10-13T02:21:38.284Z,10.33
2022-10-13T02:24:05.152Z,10.57
2022-10-13T02:26:32.512Z,10.60
2022-10-13T02:28:59.159Z,10.20
2022-10-13T02:31:25.679Z,10.73
2022-10-13T02:33:52.192Z,10.43
2022-10-13T02:36:18.655Z,10.50
2022-10-13T02:38:45.139Z,10.53
2022-10-13T02:41:11.995Z,9.90
2022-10-13T02:43:38.761Z,10.07
2022-10-13T02:46:05.390Z,9.47
2022-10-13T02:48:32.106Z,9.87
2022-10-13T02:50:58.587Z,9.33
2022-10-13T02:53:25.116Z,9.70
2022-10-13T02:55:51.611Z,9.13
2022-10-13T02:58:18.098Z,9.13
2022-10-13T03:00:44.649Z,9.30
2022-10-13T03:03:11.347Z,9.13
2022-10-13T03:05:37.860Z,8.63
2022-10-13T03:08:04.414Z,9.33
2022-10-13T03:10:31.983Z,8.97
2022-10-13T03:12:58.661Z,9.03
2022-10-13T03:15:25.342Z,8.03
2022-10-13T03:17:51.811Z,8.63
2022-10-13T03:20:18.310Z,8.80
2022-10-13T03:22:48.821Z,8.33
2022-10-13T03:25:16.411Z,8.70
2022-10-13T03:27:42.898Z,8.47
2022-10-13T03:30:10.239Z,8.00
2022-10-13T03:32:36.734Z,8.90
2022-10-13T03:35:03.351Z,8.40
2022-10-13T03:37:30.682Z,8.13
2022-10-13T03:39:57.154Z,7.90
2022-10-13T03:42:23.913Z,7.63
2022-10-13T03:44:53.759Z,7.70
2022-10-13T03:47:22.727Z,8.07
2022-10-13T03:49:49.219Z,8.30
2022-10-13T03:52:15.732Z,7.20
2022-10-13T03:54:42.224Z,7.40
2022-10-13T03:57:08.719Z,7.57
2022-10-13T03:59:36.913Z,7.43
2022-10-13T04:02:03.794Z,8.20
2022-10-13T04:04:30.364Z,7.60
2022-10-13T04:06:56.873Z,7.50
2022-10-13T04:09:23.416Z,7.77
2022-10-13T04:11:51.436Z,7.43
2022-10-13T04:14:18.413Z,8.03
2022-10-13T04:16:44.895Z,7.57
2022-10-13T04:19:12.696Z,7.90
2022-10-13T04:21:39.237Z,7.70
2022-10-13T04:24:06.024Z,7.00
2022-10-13T04:26:34.280Z,7.47
2022-10-13T04:29:02.406Z,7.77
2022-10-13T04:31:29.225Z,7.43
2022-10-13T04:33:55.757Z,7.57
2022-10-13T04:36:22.263Z,7.40
2022-10-13T04:38:48.823Z,7.60
2022-10-13T04:41:16.454Z,7.63
2022-10-13T04:43:42.942Z,7.47
2022-10-13T04:46:12.626Z,7.80
2022-10-13T04:48:39.181Z,8.63
2022-10-13T04:51:13.752Z,7.70
2022-10-13T04:53:40.391Z,8.00
2022-10-13T04:56:09.740Z,7.27
2022-10-13T04:58:36.903Z,7.47
2022-10-13T05:01:04.760Z,8.03
2022-10-13T05:03:31.438Z,7.27
2022-10-13T05:05:57.917Z,7.70
2022-10-13T05:08:24.558Z,9.37
2022-10-13T05:11:01.261Z,10.07
2022-10-13T05:13:28.374Z,9.83
2022-10-13T05:15:54.904Z,9.90
2022-10-13T05:18:21.387Z,9.83
2022-10-13T05:20:47.887Z,11.43
2022-10-13T05:23:14.796Z,11.40
2022-10-13T05:25:41.328Z,12.30
2022-10-13T05:28:08.131Z,14.57
2022-10-13T05:30:34.895Z,16.23
2022-10-13T05:33:01.382Z,16.40
2022-10-13T05:35:27.928Z,17.43
2022-10-13T05:37:54.441Z,14.33
2022-10-13T05:40:23.708Z,15.00
2022-10-13T05:42:50.540Z,16.37
2022-10-13T05:45:17.056Z,14.13
2022-10-13T05:47:43.566Z,16.20
2022-10-13T05:50:10.189Z,14.10
2022-10-13T05:52:37.841Z,14.80
2022-10-13T05:55:04.800Z,12.47
2022-10-13T05:57:33.056Z,12.00
2022-10-13T06:00:05.815Z,13.53
2022-10-13T06:02:38.600Z,11.73
2022-10-13T06:05:05.740Z,16.33
2022-10-13T06:07:32.244Z,14.40
2022-10-13T06:09:58.918Z,12.70
2022-10-13T06:12:25.411Z,17.37
2022-10-13T06:14:51.920Z,12.43
2022-10-13T06:17:18.387Z,11.27
2022-10-13T06:19:45.399Z,11.43
2022-10-13T06:22:11.929Z,10.53
2022-10-13T06:24:38.439Z,10.80
2022-10-13T06:27:04.916Z,11.87
2022-10-13T06:29:33.408Z,9.90
2022-10-13T06:31:59.884Z,10.03
2022-10-13T06:34:26.343Z,12.53
2022-10-13T06:36:52.903Z,11.13
2022-10-13T06:39:19.400Z,12.03
2022-10-13T06:41:45.905Z,12.80
2022-10-13T06:44:12.520Z,11.40
2022-10-13T06:46:39.007Z,12.63
2022-10-13T06:49:05.507Z,13.80
2022-10-13T06:51:32.292Z,12.93
2022-10-13T06:53:58.872Z,10.57
2022-10-13T06:56:25.392Z,11.70
2022-10-13T06:58:51.939Z,11.33
2022-10-13T07:01:18.493Z,9.73
2022-10-13T07:03:44.982Z,9.37
2022-10-13T07:06:11.524Z,10.80
2022-10-13T07:08:38.010Z,11.07
2022-10-13T07:11:15.960Z,9.10
2022-10-13T07:13:46.251Z,8.53
2022-10-13T07:16:13.731Z,12.27
2022-10-13T07:18:40.215Z,12.13
2022-10-13T07:21:06.996Z,11.37
2022-10-13T07:23:33.502Z,13.53
2022-10-13T07:26:01.092Z,16.17
2022-10-13T07:28:27.680Z,17.10
2022-10-13T07:30:54.226Z,14.07
2022-10-13T07:33:20.736Z,16.60
2022-10-13T07:35:47.246Z,13.37
2022-10-13T07:38:13.729Z,12.87
2022-10-13T07:40:40.227Z,12.83
2022-10-13T07:43:06.706Z,11.13
2022-10-13T07:45:33.170Z,13.10
2022-10-13T07:47:59.692Z,9.20
2022-10-13T07:50:26.183Z,11.30
2022-10-13T07:52:52.741Z,9.53
2022-10-13T07:55:19.303Z,9.20
2022-10-13T07:57:45.783Z,9.13
2022-10-13T08:00:12.673Z,9.60
2022-10-13T08:02:39.251Z,8.63
2022-10-13T08:05:05.871Z,9.27
2022-10-13T08:07:32.366Z,8.30
2022-10-13T08:09:58.904Z,8.73
2022-10-13T08:12:25.538Z,7.97
2022-10-13T08:14:52.050Z,8.20
2022-10-13T08:17:27.195Z,7.77
2022-10-13T08:19:53.751Z,8.23
2022-10-13T08:22:22.713Z,8.40
2022-10-13T08:24:52.510Z,7.83
2022-10-13T08:27:20.926Z,7.57
2022-10-13T08:29:47.704Z,7.23
2022-10-13T08:32:14.221Z,8.20
2022-10-13T08:34:40.743Z,7.47
2022-10-13T08:37:15.409Z,7.07
2022-10-13T08:39:42.015Z,7.63
2022-10-13T08:42:18.225Z,7.30
2022-10-13T08:47:54.261Z,7.60
2022-10-13T08:50:25.536Z,7.47
2022-10-13T08:52:54.940Z,7.00
2022-10-13T08:55:45.350Z,7.27
2022-10-13T08:58:19.778Z,7.57
2022-10-13T09:00:46.274Z,6.63
2022-10-13T09:03:30.739Z,6.43
2022-10-13T09:05:59.930Z,6.47
2022-10-13T09:08:26.943Z,6.00
2022-10-13T09:10:53.843Z,6.10
2022-10-13T09:13:20.483Z,6.50
2022-10-13T09:15:50.226Z,7.20
2022-10-13T09:18:16.906Z,5.97
2022-10-13T09:20:43.370Z,6.37
2022-10-13T09:23:20.758Z,6.50
2022-10-13T09:25:51.268Z,6.70
2022-10-13T09:28:29.540Z,7.87
2022-10-13T09:31:11.599Z,6.70
2022-10-13T09:33:40.851Z,5.90
2022-10-13T09:36:15.221Z,5.60
2022-10-13T09:38:45.515Z,5.80
2022-10-13T09:41:17.516Z,5.90
2022-10-13T09:43:59.332Z,5.83
2022-10-13T09:46:34.570Z,5.53
2022-10-13T09:49:09.087Z,5.20
2022-10-13T09:51:41.046Z,5.70
2022-10-13T09:54:26.691Z,5.50
2022-10-13T09:56:59.338Z,5.10
2022-10-13T09:59:33.422Z,6.33
2022-10-13T10:02:02.209Z,6.23
2022-10-13T10:04:37.924Z,5.73
2022-10-13T10:07:16.045Z,6.10
2022-10-13T10:09:47.375Z,5.97
2022-10-13T10:12:20.263Z,6.67
2022-10-13T10:14:50.128Z,5.50
2022-10-13T10:17:28.712Z,6.43
2022-10-13T10:20:07.953Z,6.03
2022-10-13T10:22:44.406Z,5.77
2022-10-13T10:25:23.092Z,5.67
2022-10-13T10:27:56.415Z,5.63
2022-10-13T10:30:22.939Z,5.37
2022-10-13T10:32:55.084Z,5.60
2022-10-13T10:35:42.495Z,5.20
2022-10-13T10:38:24.431Z,5.43
2022-10-13T10:41:07.599Z,5.13
2022-10-13T10:43:44.269Z,5.30
2022-10-13T10:46:32.302Z,5.20
2022-10-13T10:49:04.085Z,5.20
2022-10-13T10:51:32.613Z,4.90
2022-10-13T10:54:17.104Z,4.53
2022-10-13T10:57:03.036Z,5.53
2022-10-13T10:59:51.647Z,5.10
2022-10-13T11:02:38.484Z,4.93
2022-10-13T11:05:06.426Z,4.83
2022-10-13T11:07:33.286Z,5.23
2022-10-13T11:09:59.688Z,5.03
2022-10-13T11:12:28.856Z,5.07
2022-10-13T11:14:55.242Z,4.43
2022-10-13T11:17:29.507Z,4.33
2022-10-13T11:19:56.315Z,4.87
2022-10-13T11:22:29.969Z,5.93
2022-10-13T11:25:00.859Z,4.60
2022-10-13T11:27:30.620Z,4.83
2022-10-13T11:29:58.313Z,5.33
2022-10-13T11:32:41.255Z,5.10
2022-10-13T11:35:10.389Z,4.93
2022-10-13T11:38:15.312Z,5.50
2022-10-13T11:41:03.024Z,5.07
2022-10-13T11:43:48.336Z,4.70
2022-10-13T11:46:14.732Z,4.67
2022-10-13T11:49:00.519Z,4.93
2022-10-13T11:51:36.796Z,5.30
2022-10-13T11:54:19.404Z,7.00
2022-10-13T11:56:51.440Z,4.53
2022-10-13T11:59:29.180Z,4.63
2022-10-13T12:01:59.792Z,4.97
2022-10-13T12:04:28.376Z,4.60
2022-10-13T12:07:00.451Z,4.57
2022-10-13T12:09:29.134Z,6.90
2022-10-13T12:11:57.612Z,6.37
2022-10-13T12:14:40.273Z,5.60
2022-10-13T12:17:23.331Z,5.23
2022-10-13T12:19:50.506Z,5.40
2022-10-13T12:22:17.003Z,5.93
2022-10-13T12:24:43.497Z,6.77
2022-10-13T12:27:20.519Z,4.97
2022-10-13T12:29:47.230Z,6.67
2022-10-13T12:32:24.682Z,5.20
2022-10-13T12:34:51.184Z,7.10
2022-10-13T12:37:29.460Z,5.67
2022-10-13T12:39:56.464Z,6.70
2022-10-13T12:42:26.720Z,5.03
2022-10-13T12:44:53.273Z,5.17
2022-10-13T12:47:39.789Z,4.30
2022-10-13T12:50:30.805Z,5.03
2022-10-13T12:53:20.003Z,4.60
2022-10-13T12:55:50.388Z,7.50
2022-10-13T12:58:33.592Z,4.50
2022-10-13T13:01:07.628Z,4.53
2022-10-13T13:03:36.128Z,4.50
2022-10-13T13:06:14.928Z,4.40
2022-10-13T13:08:42.178Z,5.10
2022-10-13T13:11:35.596Z,4.60
2022-10-13T13:14:24.451Z,4.57
2022-10-13T13:17:02.812Z,4.20
2022-10-13T13:19:32.452Z,4.20
2022-10-13T13:21:59.069Z,4.20
2022-10-13T13:24:36.037Z,3.67
2022-10-13T13:27:19.588Z,4.00
2022-10-13T13:29:46.411Z,4.60
2022-10-13T13:32:14.093Z,4.20
2022-10-13T13:34:40.692Z,5.10
2022-10-13T13:37:22.998Z,5.90
2022-10-13T13:39:50.432Z,5.03
2022-10-13T13:42:16.958Z,5.37
2022-10-13T13:44:43.534Z,4.07
2022-10-13T13:47:23.961Z,4.30
2022-10-13T13:49:51.118Z,4.77
2022-10-13T13:52:18.058Z,3.97
2022-10-13T13:54:44.878Z,4.27
2022-10-13T13:57:12.015Z,4.60
2022-10-13T13:59:39.234Z,5.07
2022-10-13T14:02:06.401Z,4.20
2022-10-13T14:04:33.614Z,3.60
2022-10-13T14:07:00.155Z,4.00
2022-10-13T14:09:26.649Z,3.87
2022-10-13T14:11:53.162Z,3.90
2022-10-13T14:14:19.723Z,3.70
2022-10-13T14:16:46.264Z,3.60
2022-10-13T14:19:12.911Z,4.20
2022-10-13T14:21:39.456Z,4.27
2022-10-13T14:24:06.243Z,3.93
2022-10-13T14:26:32.747Z,4.17
2022-10-13T14:28:59.349Z,3.70
2022-10-13T14:31:25.947Z,3.30
2022-10-13T14:33:54.414Z,3.93
2022-10-13T14:36:21.148Z,3.60
2022-10-13T14:38:47.669Z,3.50
2022-10-13T14:41:16.978Z,4.43
2022-10-13T14:43:43.732Z,3.70
2022-10-13T14:46:10.200Z,3.70
2022-10-13T14:48:37.109Z,4.00
2022-10-13T14:51:07.359Z,4.13
2022-10-13T14:53:38.359Z,3.60
2022-10-13T14:56:22.098Z,3.97
2022-10-13T14:58:48.952Z,3.87
2022-10-13T15:01:15.739Z,4.53
2022-10-13T15:03:42.344Z,3.77
2022-10-13T15:06:19.545Z,4.00
2022-10-13T15:08:46.228Z,3.73
2022-10-13T15:11:13.108Z,3.50
2022-10-13T15:13:39.752Z,5.33
2022-10-13T15:16:06.792Z,3.70
2022-10-13T15:18:34.759Z,3.80
2022-10-13T15:21:01.279Z,3.60
2022-10-13T15:23:27.926Z,3.73
2022-10-13T15:25:58.753Z,7.17
2022-10-13T15:28:29.689Z,6.83
2022-10-13T15:30:56.227Z,5.83
2022-10-13T15:33:22.896Z,7.13
2022-10-13T15:35:50.187Z,6.47
2022-10-13T15:38:17.250Z,4.47
2022-10-13T15:40:43.802Z,4.20
2022-10-13T15:43:10.341Z,5.47
2022-10-13T15:45:36.823Z,5.80
2022-10-13T15:48:03.655Z,5.80
2022-10-13T15:50:30.212Z,5.93
2022-10-13T15:52:56.983Z,4.03
2022-10-13T15:55:23.531Z,4.43
2022-10-13T15:57:50.038Z,4.57
2022-10-13T16:00:16.843Z,4.23
2022-10-13T16:02:43.687Z,4.30
2022-10-13T16:05:11.780Z,4.60
2022-10-13T16:07:41.491Z,4.77
2022-10-13T16:10:09.102Z,4.50
2022-10-13T16:12:35.592Z,3.77
2022-10-13T16:15:02.204Z,4.40
2022-10-13T16:17:28.672Z,5.97
2022-10-13T16:19:55.263Z,4.73
2022-10-13T16:22:22.190Z,4.57
2022-10-13T16:24:49.015Z,4.30
2022-10-13T16:27:15.520Z,4.20
2022-10-13T16:29:42.000Z,4.20
2022-10-13T16:32:08.509Z,3.20
2022-10-13T16:34:35.019Z,3.70
2022-10-13T16:37:01.524Z,4.20
2022-10-13T16:39:28.494Z,3.80
2022-10-13T16:41:55.087Z,3.60
2022-10-13T16:44:21.600Z,3.80
2022-10-13T16:46:49.697Z,3.97
2022-10-13T16:49:16.208Z,3.30
2022-10-13T16:51:42.709Z,3.70
2022-10-13T16:54:09.476Z,3.90
2022-10-13T16:56:36.026Z,4.50
2022-10-13T16:59:04.540Z,3.20
2022-10-13T17:01:31.392Z,3.63
2022-10-13T17:03:57.929Z,3.63
2022-10-13T17:06:25.618Z,3.43
2022-10-13T17:08:52.147Z,3.10
2022-10-13T17:11:20.270Z,3.80
2022-10-13T17:13:46.945Z,3.20
2022-10-13T17:16:13.452Z,3.53
2022-10-13T17:18:40.044Z,3.20
2022-10-13T17:21:09.073Z,3.70
2022-10-13T17:23:35.728Z,2.90
2022-10-13T17:26:09.540Z,3.27
2022-10-13T17:28:36.252Z,3.40
2022-10-13T17:31:09.456Z,3.40
2022-10-13T17:33:36.651Z,3.30
2022-10-13T17:36:12.200Z,3.63
2022-10-13T17:38:38.677Z,3.50
2022-10-13T17:41:06.178Z,3.10
2022-10-13T17:43:34.486Z,3.10
2022-10-13T17:46:38.370Z,3.23
2022-10-13T17:49:09.783Z,3.40
2022-10-13T17:51:36.345Z,3.10
2022-10-13T17:54:02.860Z,3.37
2022-10-13T17:56:29.760Z,3.40
2022-10-13T17:58:56.679Z,3.23
2022-10-13T18:01:30.438Z,2.90
2022-10-13T18:03:58.375Z,3.00
2022-10-13T18:06:25.110Z,3.00
2022-10-13T18:08:52.151Z,3.60
2022-10-13T18:11:19.795Z,3.37
2022-10-13T18:13:46.287Z,3.30
2022-10-13T18:16:17.557Z,3.23
2022-10-13T18:18:44.960Z,3.37
2022-10-13T18:21:13.264Z,4.43
2022-10-13T18:23:39.791Z,3.10
2022-10-13T18:26:07.948Z,2.90
2022-10-13T18:28:35.924Z,3.27
2022-10-13T18:31:08.919Z,3.50
2022-10-13T18:33:35.421Z,2.97
2022-10-13T18:36:02.122Z,3.23
2022-10-13T18:38:28.585Z,3.00
2022-10-13T18:40:59.221Z,2.90
2022-10-13T18:43:25.682Z,3.17
2022-10-13T18:45:52.175Z,2.83
2022-10-13T18:48:19.829Z,3.23
2022-10-13T18:50:46.343Z,3.23
2022-10-13T18:53:12.800Z,3.10
2022-10-13T18:55:42.745Z,3.20
2022-10-13T18:58:09.445Z,2.87
2022-10-13T19:00:36.254Z,2.90
2022-10-13T19:03:02.911Z,3.00
2022-10-13T19:05:29.606Z,2.90
2022-10-13T19:07:56.091Z,4.30
2022-10-13T19:10:22.590Z,3.10
2022-10-13T19:12:49.042Z,3.27
2022-10-13T19:15:15.548Z,2.97
2022-10-13T19:17:42.035Z,3.03
2022-10-13T19:20:08.886Z,3.10
2022-10-13T19:22:35.372Z,3.10
2022-10-13T19:25:01.851Z,3.40
2022-10-13T19:27:28.344Z,4.60
2022-10-13T19:29:54.847Z,3.30
2022-10-13T19:32:21.351Z,3.00
2022-10-13T19:34:47.864Z,3.13
2022-10-13T19:37:16.334Z,3.20
2022-10-13T19:39:42.862Z,2.80
2022-10-13T19:42:09.354Z,2.70
2022-10-13T19:44:35.835Z,2.87
2022-10-13T19:47:02.290Z,2.57
2022-10-13T19:49:28.806Z,3.03
2022-10-13T19:51:55.899Z,3.00
2022-10-13T19:54:22.596Z,2.90
2022-10-13T19:56:49.322Z,2.80
2022-10-13T19:59:16.256Z,3.30
2022-10-13T20:01:42.774Z,3.50
2022-10-13T20:04:09.303Z,2.87
2022-10-13T20:06:36.038Z,3.53
2022-10-13T20:09:02.506Z,2.60
2022-10-13T20:11:28.979Z,3.23
2022-10-13T20:13:55.481Z,2.80
2022-10-13T20:16:23.314Z,3.43
2022-10-13T20:18:54.000Z,2.90
2022-10-13T20:21:20.716Z,2.60
2022-10-13T20:23:47.276Z,2.80
2022-10-13T20:26:13.944Z,2.97
2022-10-13T20:28:43.113Z,2.60
2022-10-13T20:31:10.615Z,3.07
2022-10-13T20:33:37.167Z,2.93
2022-10-13T20:36:05.528Z,2.70
2022-10-13T20:38:32.705Z,2.80
2022-10-13T20:41:08.628Z,2.67
2022-10-13T20:43:35.232Z,3.10
2022-10-13T20:46:04.779Z,2.77
2022-10-13T20:48:45.569Z,3.17
2022-10-13T20:51:21.563Z,2.73
2022-10-13T20:53:48.567Z,2.90
2022-10-13T20:56:22.888Z,2.90
2022-10-13T20:58:49.551Z,2.90
2022-10-13T21:01:16.551Z,2.80
2022-10-13T21:03:43.115Z,2.67
2022-10-13T21:06:11.169Z,3.17
2022-10-13T21:08:37.716Z,2.87
2022-10-13T21:11:11.451Z,3.00
2022-10-13T21:13:38.847Z,2.40
2022-10-13T21:16:09.352Z,2.80
2022-10-13T21:18:35.879Z,2.70
2022-10-13T21:21:06.096Z,2.60
2022-10-13T21:23:32.654Z,2.83
2022-10-13T21:26:05.655Z,2.80
2022-10-13T21:28:32.272Z,3.00
2022-10-13T21:31:02.824Z,3.10
2022-10-13T21:33:29.435Z,3.00
2022-10-13T21:35:55.915Z,2.87
2022-10-13T21:38:22.660Z,2.93
2022-10-13T21:40:53.673Z,2.80
2022-10-13T21:43:20.511Z,2.87
2022-10-13T21:45:46.985Z,3.10
2022-10-13T21:48:13.516Z,2.83
2022-10-13T21:50:40.000Z,3.23
2022-10-13T21:53:06.549Z,2.90
2022-10-13T21:55:33.109Z,3.27
2022-10-13T21:58:05.239Z,2.87
2022-10-13T22:00:32.153Z,2.87
2022-10-13T22:02:58.731Z,2.60
2022-10-13T22:05:25.206Z,2.73
2022-10-13T22:07:51.727Z,3.00
2022-10-13T22:10:18.319Z,2.83
2022-10-13T22:12:44.803Z,2.80
2022-10-13T22:15:11.690Z,3.13
2022-10-13T22:17:38.202Z,3.17
2022-10-13T22:20:04.989Z,3.00
2022-10-13T22:22:31.501Z,2.80
2022-10-13T22:24:58.033Z,2.97
2022-10-13T22:27:24.500Z,2.80
2022-10-13T22:29:51.179Z,3.23
2022-10-13T22:32:17.674Z,2.90
2022-10-13T22:34:44.169Z,3.10
2022-10-13T22:37:10.672Z,2.90
2022-10-13T22:39:37.168Z,2.80
2022-10-13T22:42:03.829Z,3.00
2022-10-13T22:44:30.308Z,3.20
2022-10-13T22:46:56.799Z,2.90
2022-10-13T22:49:23.295Z,3.00
2022-10-13T22:51:49.762Z,2.70
2022-10-13T22:54:16.295Z,2.90
2022-10-13T22:56:43.119Z,3.27
2022-10-13T22:59:09.791Z,2.93
2022-10-13T23:01:36.267Z,3.03
2022-10-13T23:04:02.798Z,3.40
2022-10-13T23:06:30.815Z,2.87
2022-10-13T23:08:59.999Z,3.90
2022-10-13T23:11:26.474Z,2.87
2022-10-13T23:13:53.015Z,3.00
2022-10-13T23:16:21.735Z,2.87
2022-10-13T23:18:48.287Z,2.83
2022-10-13T23:21:16.725Z,2.80
2022-10-13T23:23:43.235Z,2.97
2022-10-13T23:26:16.841Z,3.33
2022-10-13T23:28:43.788Z,2.70
2022-10-13T23:31:14.769Z,3.00
2022-10-13T23:33:41.341Z,3.03
2022-10-13T23:36:08.886Z,2.90
2022-10-13T23:38:35.439Z,3.30
2022-10-13T23:41:06.052Z,3.40
2022-10-13T23:43:32.643Z,4.23
2022-10-13T23:45:59.181Z,3.10
2022-10-13T23:48:25.687Z,2.80
2022-10-13T23:50:52.172Z,3.33
2022-10-13T23:53:18.649Z,4.07
2022-10-13T23:55:45.146Z,3.13
2022-10-13T23:58:11.620Z,3.00
